Aeroporto :
LOGIN :

Iscrizione | Disclaimer

   EN    FR    IT 

 










Sommario :    VFR   VFR Marginale   IFR   IFR Intensivo   IFR Molto Intensivo
Visibilità : 
Base nubi : 
>= 8 km
>= 3000ft
5 / 8 km
1000 / 3000 ft
1500m / 5 km
500 / 1000 ft
800 / 1500m
200 / 500 ft
< 800m
< 200 ft
Simboli :   Temporali  Nebbia  Neve Forte  Precipitazioni Forti  Vento > 20 kt
SIGMETs :   Varie  Temporali  Ghiacco  Turbolenza  Onda orograficha  Ceneri Vulcaniche






- Altitudine del aeroporto : 348 ft
- Codice IATA : LDV


LFRJ - Landivisiau

ULTIMO METAR :
  • 252000Z AUTO 32009KT 9999 FEW024/// BKN031/// BKN054/// ///TCU 11/07 Q1018

METARs OBSOLETI :
  • 251930Z AUTO 32010KT 9999 BKN027 BKN047 BKN060 11/08 Q1018
  • 251900Z AUTO 32010KT 300V360 9999 SCT024 BKN029 BKN035 11/07 Q1018
  • 251830Z AUTO 33012KT 300V360 9999 BKN024/// BKN033/// BKN044/// ///TCU 11/08 Q1017
  • 251800Z AUTO 32013KT 290V360 9999 BKN025/// BKN041/// BKN047/// ///TCU 12/07 Q1017
  • 251730Z AUTO 32014KT 9999 BKN025/// BKN035/// BKN056/// ///TCU 12/07 Q1017

TAF TAF LFRJ
Valido dal 25 a 12 ore il 25 a 21 ore UTC


251100Z 2512/2521 34020G30KT 9999 SCT035
TEMPO 2516/2518 4000 SHRA BKN020TCU
BECMG 2517/2519 34012G25KT



MetMap, La meteo Aeronautica in un colpo d'occhio ! - Copyright ORBIFLY Dicembre 2007 - Disclaimer

ORBIFLY MET'MAP TEAM :

Programmazione e sviluppo : Alexandra Zaïnal
Concezione : Baudouin d'Aumeries
Aiuto per la programmazione : Marc-Olivier Méhu
Supporto tecnico e logistico : Manuel Goepfert
Aiuto per la traduzione : Arnaldo La Scala

Contatto : metmap@orbifly.com




FONTI E CREDITI :

   NOAA